AXM1054 WMKL-WMKP
Flight info
| Callsign | AXM1054 |
|---|---|
| Flight time | 0h 22m |
| Altitude | 11000 |
| Route | KAPKO1B KAPKO DCT OMBOK |
| Aircraft | A20N/M-SDE2E3FGHIRWXY/LB1 |
Departure
| Time | 2026-04-25 08:43 |
|---|---|
| Airport | Langkawi International Airport (WMKL) |
Arrival
| Time | 2026-04-25 09:05 |
|---|---|
| Airport | Penang International Airport (WMKP) |
| Time | Latitude | Longitude | Altitude | Speed | Heading |
|---|---|---|---|---|---|
| 2026-04-25 08:26 | 6.34047 | 99.73224 | 34 ft | 0 kts | 303° |
| 2026-04-25 08:34 | 6.34045 | 99.73227 | 34 ft | 2 kts | 303° |
| 2026-04-25 08:34 | 6.34037 | 99.73239 | 33 ft | 2 kts | 303° |
| 2026-04-25 08:35 | 6.34029 | 99.73251 | 33 ft | 2 kts | 304° |
| 2026-04-25 08:35 | 6.34021 | 99.73264 | 32 ft | 1 kts | 314° |
| 2026-04-25 08:35 | 6.34007 | 99.73270 | 32 ft | 2 kts | 1° |
| 2026-04-25 08:35 | 6.33997 | 99.73267 | 32 ft | 0 kts | 30° |
| 2026-04-25 08:36 | 6.33991 | 99.73263 | 31 ft | 0 kts | 34° |
| 2026-04-25 08:38 | 6.33996 | 99.73267 | 32 ft | 2 kts | 34° |
| 2026-04-25 08:38 | 6.34017 | 99.73281 | 32 ft | 5 kts | 34° |
| 2026-04-25 08:39 | 6.34056 | 99.73308 | 33 ft | 8 kts | 34° |
| 2026-04-25 08:39 | 6.34105 | 99.73348 | 33 ft | 9 kts | 64° |
| 2026-04-25 08:39 | 6.34086 | 99.73411 | 32 ft | 9 kts | 101° |
| 2026-04-25 08:39 | 6.34135 | 99.73457 | 32 ft | 10 kts | 32° |
| 2026-04-25 08:40 | 6.34198 | 99.73498 | 32 ft | 11 kts | 33° |
| 2026-04-25 08:40 | 6.34263 | 99.73541 | 33 ft | 11 kts | 33° |
| 2026-04-25 08:40 | 6.34330 | 99.73588 | 34 ft | 12 kts | 35° |
| 2026-04-25 08:40 | 6.34404 | 99.73640 | 33 ft | 14 kts | 34° |
| 2026-04-25 08:41 | 6.34451 | 99.73705 | 33 ft | 12 kts | 79° |
| 2026-04-25 08:41 | 6.34426 | 99.73782 | 33 ft | 8 kts | 127° |
| 2026-04-25 08:41 | 6.34399 | 99.73815 | 33 ft | 5 kts | 138° |
| 2026-04-25 08:41 | 6.34363 | 99.73809 | 33 ft | 2 kts | 216° |
| 2026-04-25 08:42 | 6.34362 | 99.73808 | 33 ft | 0 kts | 216° |
| 2026-04-25 08:42 | 6.34291 | 99.73758 | 33 ft | 50 kts | 214° |
| 2026-04-25 08:42 | 6.33752 | 99.73390 | 29 ft | 134 kts | 214° |
| 2026-04-25 08:43 | 6.32878 | 99.72801 | 509 ft | 159 kts | 214° |
| 2026-04-25 08:43 | 6.31983 | 99.72237 | 1440 ft | 152 kts | 204° |
| 2026-04-25 08:43 | 6.30979 | 99.72213 | 2110 ft | 158 kts | 159° |
| 2026-04-25 08:43 | 6.29977 | 99.72804 | 2601 ft | 177 kts | 147° |
| 2026-04-25 08:44 | 6.28914 | 99.73544 | 2942 ft | 200 kts | 147° |
| 2026-04-25 08:44 | 6.27722 | 99.74347 | 3313 ft | 214 kts | 149° |
| 2026-04-25 08:44 | 6.26479 | 99.75148 | 4161 ft | 218 kts | 150° |
| 2026-04-25 08:44 | 6.25225 | 99.75925 | 5177 ft | 216 kts | 150° |
| 2026-04-25 08:45 | 6.23931 | 99.76714 | 6049 ft | 222 kts | 151° |
| 2026-04-25 08:45 | 6.22632 | 99.77508 | 6982 ft | 226 kts | 152° |
| 2026-04-25 08:45 | 6.21236 | 99.78345 | 7679 ft | 243 kts | 152° |
| 2026-04-25 08:45 | 6.19731 | 99.79240 | 8362 ft | 262 kts | 152° |
| 2026-04-25 08:46 | 6.18121 | 99.80201 | 9048 ft | 282 kts | 152° |
| 2026-04-25 08:46 | 6.16409 | 99.81229 | 9756 ft | 300 kts | 152° |
| 2026-04-25 08:46 | 6.14585 | 99.82322 | 10462 ft | 309 kts | 152° |
| 2026-04-25 08:46 | 6.12744 | 99.83427 | 10871 ft | 313 kts | 151° |
| 2026-04-25 08:47 | 6.10847 | 99.84563 | 11010 ft | 315 kts | 151° |
| 2026-04-25 08:47 | 6.08995 | 99.85678 | 11016 ft | 314 kts | 151° |
| 2026-04-25 08:47 | 6.07123 | 99.86803 | 11021 ft | 314 kts | 152° |
| 2026-04-25 08:47 | 6.05227 | 99.87940 | 11023 ft | 315 kts | 151° |
| 2026-04-25 08:48 | 6.03365 | 99.89056 | 11023 ft | 315 kts | 151° |
| 2026-04-25 08:48 | 6.01492 | 99.90179 | 11024 ft | 315 kts | 151° |
| 2026-04-25 08:48 | 5.99597 | 99.91318 | 10903 ft | 315 kts | 151° |
| 2026-04-25 08:48 | 5.97749 | 99.92425 | 10638 ft | 309 kts | 151° |
| 2026-04-25 08:49 | 5.95902 | 99.93512 | 10388 ft | 306 kts | 154° |
| 2026-04-25 08:49 | 5.94010 | 99.94473 | 10138 ft | 304 kts | 156° |
| 2026-04-25 08:49 | 5.92115 | 99.95383 | 9932 ft | 301 kts | 157° |
| 2026-04-25 08:49 | 5.90234 | 99.96275 | 9807 ft | 302 kts | 156° |
| 2026-04-25 08:50 | 5.88320 | 99.97183 | 9682 ft | 302 kts | 157° |
| 2026-04-25 08:50 | 5.86436 | 99.98080 | 9568 ft | 300 kts | 157° |
| 2026-04-25 08:50 | 5.84558 | 99.98978 | 9446 ft | 299 kts | 157° |
| 2026-04-25 08:50 | 5.82673 | 99.99876 | 9323 ft | 300 kts | 157° |
| 2026-04-25 08:51 | 5.80801 | 100.00774 | 9207 ft | 299 kts | 157° |
| 2026-04-25 08:51 | 5.78941 | 100.01665 | 9102 ft | 299 kts | 156° |
| 2026-04-25 08:51 | 5.77075 | 100.02559 | 8978 ft | 299 kts | 156° |
| 2026-04-25 08:51 | 5.75191 | 100.03463 | 8853 ft | 297 kts | 157° |
| 2026-04-25 08:52 | 5.73295 | 100.04269 | 8722 ft | 297 kts | 165° |
| 2026-04-25 08:52 | 5.71280 | 100.04665 | 8600 ft | 295 kts | 175° |
| 2026-04-25 08:52 | 5.69253 | 100.04887 | 8469 ft | 291 kts | 177° |
| 2026-04-25 08:52 | 5.67235 | 100.05073 | 8344 ft | 293 kts | 177° |
| 2026-04-25 08:53 | 5.65230 | 100.05263 | 8220 ft | 292 kts | 177° |
| 2026-04-25 08:53 | 5.63201 | 100.05466 | 8103 ft | 292 kts | 177° |
| 2026-04-25 08:53 | 5.61185 | 100.05674 | 8013 ft | 290 kts | 177° |
| 2026-04-25 08:53 | 5.59196 | 100.05882 | 7915 ft | 290 kts | 176° |
| 2026-04-25 08:54 | 5.57187 | 100.06091 | 7789 ft | 292 kts | 176° |
| 2026-04-25 08:54 | 5.55170 | 100.06308 | 7680 ft | 290 kts | 176° |
| 2026-04-25 08:54 | 5.53173 | 100.06522 | 7570 ft | 289 kts | 176° |
| 2026-04-25 08:54 | 5.51180 | 100.06733 | 7487 ft | 290 kts | 176° |
| 2026-04-25 08:55 | 5.49182 | 100.06943 | 7415 ft | 290 kts | 175° |
| 2026-04-25 08:55 | 5.47179 | 100.07156 | 7361 ft | 290 kts | 175° |
| 2026-04-25 08:55 | 5.45170 | 100.07346 | 7312 ft | 289 kts | 180° |
| 2026-04-25 08:55 | 5.43175 | 100.07188 | 7254 ft | 288 kts | 190° |
| 2026-04-25 08:56 | 5.41214 | 100.06857 | 7159 ft | 284 kts | 192° |
| 2026-04-25 08:56 | 5.39289 | 100.06500 | 6739 ft | 283 kts | 192° |
| 2026-04-25 08:56 | 5.37336 | 100.06140 | 6302 ft | 282 kts | 192° |
| 2026-04-25 08:56 | 5.35412 | 100.05795 | 5959 ft | 281 kts | 191° |
| 2026-04-25 08:57 | 5.33497 | 100.05457 | 5652 ft | 281 kts | 191° |
| 2026-04-25 08:57 | 5.31601 | 100.05127 | 5363 ft | 279 kts | 191° |
| 2026-04-25 08:57 | 5.29683 | 100.04795 | 5075 ft | 277 kts | 191° |
| 2026-04-25 08:57 | 5.27806 | 100.04472 | 4818 ft | 274 kts | 191° |
| 2026-04-25 08:58 | 5.25940 | 100.04150 | 4528 ft | 268 kts | 191° |
| 2026-04-25 08:58 | 5.24139 | 100.03839 | 4248 ft | 262 kts | 191° |
| 2026-04-25 08:58 | 5.22377 | 100.03535 | 3997 ft | 256 kts | 191° |
| 2026-04-25 08:58 | 5.20637 | 100.03242 | 3778 ft | 250 kts | 191° |
| 2026-04-25 08:59 | 5.18929 | 100.03257 | 3478 ft | 249 kts | 164° |
| 2026-04-25 08:59 | 5.17530 | 100.04261 | 3181 ft | 250 kts | 126° |
| 2026-04-25 08:59 | 5.16887 | 100.05856 | 2966 ft | 246 kts | 105° |
| 2026-04-25 08:59 | 5.16476 | 100.07511 | 2729 ft | 246 kts | 105° |
| 2026-04-25 09:00 | 5.16010 | 100.09154 | 2499 ft | 242 kts | 108° |
| 2026-04-25 09:00 | 5.15465 | 100.10718 | 2259 ft | 239 kts | 110° |
| 2026-04-25 09:00 | 5.14875 | 100.12270 | 2058 ft | 233 kts | 111° |
| 2026-04-25 09:00 | 5.14603 | 100.13837 | 1991 ft | 230 kts | 82° |
| 2026-04-25 09:01 | 5.15203 | 100.15303 | 1996 ft | 231 kts | 48° |
| 2026-04-25 09:01 | 5.16428 | 100.16260 | 1998 ft | 217 kts | 30° |
| 2026-04-25 09:01 | 5.17664 | 100.17014 | 1982 ft | 203 kts | 33° |
| 2026-04-25 09:01 | 5.18760 | 100.17821 | 1985 ft | 186 kts | 36° |
| 2026-04-25 09:02 | 5.19743 | 100.18646 | 1971 ft | 176 kts | 40° |
| 2026-04-25 09:02 | 5.20624 | 100.19434 | 2012 ft | 168 kts | 42° |
| 2026-04-25 09:02 | 5.21489 | 100.20225 | 1945 ft | 169 kts | 41° |
| 2026-04-25 09:02 | 5.22342 | 100.21004 | 1711 ft | 165 kts | 39° |
| 2026-04-25 09:03 | 5.23164 | 100.21752 | 1501 ft | 154 kts | 39° |
| 2026-04-25 09:03 | 5.23947 | 100.22459 | 1269 ft | 151 kts | 40° |
| 2026-04-25 09:03 | 5.24704 | 100.23143 | 1081 ft | 145 kts | 40° |
| 2026-04-25 09:03 | 5.25439 | 100.23811 | 898 ft | 139 kts | 39° |
| 2026-04-25 09:04 | 5.26161 | 100.24465 | 709 ft | 140 kts | 39° |
| 2026-04-25 09:04 | 5.26890 | 100.25124 | 529 ft | 142 kts | 41° |
| 2026-04-25 09:04 | 5.27625 | 100.25788 | 350 ft | 142 kts | 40° |
| 2026-04-25 09:04 | 5.28353 | 100.26457 | 144 ft | 141 kts | 40° |
| 2026-04-25 09:05 | 5.28835 | 100.26883 | 30 ft | 137 kts | 41° |
| 2026-04-25 09:05 | 5.29615 | 100.27592 | 20 ft | 75 kts | 41° |
| 2026-04-25 09:05 | 5.29843 | 100.27787 | 24 ft | 21 kts | 31° |
| 2026-04-25 09:05 | 5.29966 | 100.27828 | 25 ft | 15 kts | 11° |
| 2026-04-25 09:06 | 5.30059 | 100.27846 | 25 ft | 10 kts | 11° |
| 2026-04-25 09:06 | 5.30117 | 100.27848 | 26 ft | 8 kts | 334° |
| 2026-04-25 09:06 | 5.30118 | 100.27796 | 26 ft | 9 kts | 229° |
| 2026-04-25 09:06 | 5.30065 | 100.27742 | 26 ft | 12 kts | 223° |
| 2026-04-25 09:07 | 5.29996 | 100.27678 | 26 ft | 14 kts | 222° |
| 2026-04-25 09:07 | 5.29917 | 100.27608 | 25 ft | 15 kts | 222° |
| 2026-04-25 09:07 | 5.29832 | 100.27530 | 24 ft | 17 kts | 221° |
| 2026-04-25 09:07 | 5.29737 | 100.27445 | 23 ft | 18 kts | 221° |
| 2026-04-25 09:08 | 5.29705 | 100.27416 | 22 ft | 19 kts | 222° |
| 2026-04-25 09:08 | 5.29570 | 100.27293 | 21 ft | 20 kts | 221° |
| 2026-04-25 09:08 | 5.29432 | 100.27169 | 21 ft | 17 kts | 223° |
| 2026-04-25 09:08 | 5.29359 | 100.27102 | 21 ft | 12 kts | 223° |
| 2026-04-25 09:09 | 5.29348 | 100.27028 | 22 ft | 12 kts | 313° |
| 2026-04-25 09:09 | 5.29379 | 100.26996 | 23 ft | 9 kts | 313° |
| 2026-04-25 09:09 | 5.29383 | 100.26932 | 24 ft | 7 kts | 228° |
| 2026-04-25 09:09 | 5.29354 | 100.26902 | 25 ft | 5 kts | 247° |
| 2026-04-25 09:10 | 5.29371 | 100.26865 | 25 ft | 6 kts | 314° |
| 2026-04-25 09:10 | 5.29398 | 100.26837 | 26 ft | 3 kts | 313° |
| 2026-04-25 09:10 | 5.29409 | 100.26826 | 27 ft | 1 kts | 312° |
| 2026-04-25 09:10 | 5.29410 | 100.26824 | 27 ft | 0 kts | 312° |
| 2026-04-25 09:11 | 5.29410 | 100.26823 | 27 ft | 0 kts | 312° |